Time;durP1;ratioP1;P1;durP2;ratioP2;P2;SDS_P1;SDS_P2;PMS_P1;PMS_P2;Temp;Humidity;BMP_temperature;BMP_pressure;BME280_temperature;BME280_humidity;BME280_pressure;Samples;Min_cycle;Max_cycle;Signal;HPM_P1;HPM_P2
2022/11/24 00:02:41;;;;;;;3.33;3.23;;;3.60;99.90;;;;;;6339139;28;20291;-67
2022/11/24 00:05:46;;;;;;;3.30;3.20;;;3.60;99.90;;;;;;6339641;28;20319;-67
2022/11/24 00:08:51;;;;;;;3.00;2.97;;;3.60;99.90;;;;;;6339240;28;20301;-67
2022/11/24 00:11:56;;;;;;;3.40;3.20;;;3.60;99.90;;;;;;6298939;28;20268;-67
2022/11/24 00:15:03;;;;;;;3.53;3.43;;;3.50;99.90;;;;;;6289156;28;20298;-67
2022/11/24 00:18:13;;;;;;;3.50;3.30;;;3.50;99.90;;;;;;6288698;28;20299;-67
2022/11/24 00:21:18;;;;;;;4.07;3.50;;;3.50;99.90;;;;;;6289883;28;20270;-67
2022/11/24 00:24:23;;;;;;;3.63;3.37;;;3.50;99.90;;;;;;6288590;28;20307;-67
2022/11/24 00:27:28;;;;;;;3.50;3.30;;;3.50;99.90;;;;;;6289011;28;20294;-67
2022/11/24 00:30:35;;;;;;;3.50;3.30;;;3.60;99.90;;;;;;6289551;28;20270;-68
2022/11/24 00:33:40;;;;;;;4.37;3.47;;;3.60;99.90;;;;;;6288764;28;20310;-67
2022/11/24 00:36:45;;;;;;;3.60;3.50;;;3.60;99.90;;;;;;6287875;28;20268;-68
2022/11/24 00:39:50;;;;;;;4.13;3.83;;;3.60;99.90;;;;;;6296839;28;20302;-67
2022/11/24 00:42:55;;;;;;;3.87;3.67;;;3.70;99.90;;;;;;6313271;28;20313;-66
2022/11/24 00:46:02;;;;;;;3.87;3.73;;;3.70;99.90;;;;;;6313779;28;20274;-67
2022/11/24 00:49:07;;;;;;;3.70;3.60;;;3.70;99.90;;;;;;6312883;28;20587;-67
2022/11/24 00:52:13;;;;;;;4.20;3.90;;;3.70;99.90;;;;;;6295353;28;20265;-67
2022/11/24 00:55:18;;;;;;;4.00;3.80;;;3.70;99.90;;;;;;6314081;28;20448;-67
2022/11/24 00:58:24;;;;;;;4.30;4.10;;;3.70;99.90;;;;;;6312922;28;20302;-67
2022/11/24 01:01:31;;;;;;;4.27;3.93;;;3.70;99.90;;;;;;6313513;28;20282;-67
2022/11/24 01:04:36;;;;;;;3.67;3.57;;;3.70;99.90;;;;;;6313035;28;20306;-67
2022/11/24 01:07:40;;;;;;;4.00;3.80;;;3.70;99.90;;;;;;6312566;28;20297;-67
2022/11/24 01:10:45;;;;;;;4.10;3.87;;;3.80;99.90;;;;;;6323359;28;20259;-67
2022/11/24 01:13:54;;;;;;;4.27;3.97;;;3.70;99.90;;;;;;6337587;28;20310;-67
2022/11/24 01:17:00;;;;;;;4.60;4.30;;;3.70;99.90;;;;;;6338178;28;20558;-67
2022/11/24 01:20:07;;;;;;;3.87;3.73;;;3.70;99.90;;;;;;6336607;28;20271;-67
2022/11/24 01:23:12;;;;;;;4.30;4.00;;;3.70;99.90;;;;;;6337546;28;20302;-67
2022/11/24 01:26:21;;;;;;;4.20;3.90;;;3.60;99.90;;;;;;6337810;28;20442;-68
2022/11/24 01:29:26;;;;;;;4.23;4.00;;;3.70;99.90;;;;;;6337279;28;20296;-66
2022/11/24 01:32:34;;;;;;;4.13;3.73;;;3.70;99.90;;;;;;6337598;28;20450;-67
2022/11/24 01:35:40;;;;;;;4.17;3.80;;;3.80;99.90;;;;;;6337564;28;20277;-67
2022/11/24 01:38:45;;;;;;;4.43;4.13;;;3.80;99.90;;;;;;6337127;28;20382;-67
2022/11/24 01:41:51;;;;;;;4.43;4.10;;;3.80;99.90;;;;;;6312639;28;20292;-67
2022/11/24 01:45:31;;;;;;;4.00;3.80;;;3.80;99.90;;;;;;6311622;28;20300;-67
2022/11/24 01:48:42;;;;;;;4.20;4.10;;;3.90;99.90;;;;;;6310925;28;20291;-66
2022/11/24 01:51:50;;;;;;;4.17;3.87;;;3.90;99.90;;;;;;6312369;28;20263;-66
2022/11/24 01:54:58;;;;;;;3.83;3.63;;;3.90;99.90;;;;;;6311481;28;20321;-67
2022/11/24 01:58:07;;;;;;;5.10;4.10;;;3.90;99.90;;;;;;6311585;28;20587;-68
2022/11/24 02:01:13;;;;;;;4.97;4.53;;;3.90;99.90;;;;;;6311615;28;20267;-68
2022/11/24 02:04:23;;;;;;;4.30;4.10;;;3.90;99.90;;;;;;6311553;28;20296;-68
2022/11/24 02:07:28;;;;;;;4.27;3.97;;;3.80;99.90;;;;;;6311172;28;20301;-68
2022/11/24 02:10:34;;;;;;;3.93;3.73;;;3.90;99.90;;;;;;6312137;28;20453;-68
2022/11/24 02:13:40;;;;;;;4.00;3.80;;;3.90;99.90;;;;;;6311685;28;20299;-67
2022/11/24 02:16:50;;;;;;;4.23;3.93;;;3.90;99.90;;;;;;6311708;28;20317;-67
2022/11/24 02:19:58;;;;;;;3.80;3.60;;;3.90;99.90;;;;;;6310612;28;20488;-68
2022/11/24 02:23:11;;;;;;;4.33;4.10;;;3.90;99.90;;;;;;6310990;28;20298;-68
2022/11/24 02:26:29;;;;;;;4.10;3.80;;;3.90;99.90;;;;;;6310829;28;20275;-68
2022/11/24 02:29:34;;;;;;;4.73;4.33;;;3.90;99.90;;;;;;6311052;28;20296;-68
2022/11/24 02:32:41;;;;;;;4.60;4.30;;;3.90;99.90;;;;;;6310447;28;20297;-67
2022/11/24 02:35:46;;;;;;;5.07;4.67;;;3.90;99.90;;;;;;6311234;28;20279;-67
2022/11/24 02:38:51;;;;;;;4.60;4.30;;;4.00;99.90;;;;;;6310105;28;20334;-67
2022/11/24 02:42:01;;;;;;;4.50;4.20;;;3.90;99.90;;;;;;6311275;28;20571;-67
2022/11/24 02:45:08;;;;;;;4.33;3.90;;;3.90;99.90;;;;;;6310690;28;20291;-67
2022/11/24 02:48:14;;;;;;;4.83;4.27;;;3.90;99.90;;;;;;6310362;28;20618;-68
2022/11/24 02:51:19;;;;;;;4.47;4.17;;;3.90;99.90;;;;;;6311014;28;20269;-67
2022/11/24 02:54:24;;;;;;;4.50;4.20;;;3.90;99.90;;;;;;6310699;28;20301;-68
2022/11/24 02:57:31;;;;;;;4.70;4.37;;;3.90;99.90;;;;;;6310279;28;20313;-67
2022/11/24 03:00:36;;;;;;;4.53;4.20;;;3.90;99.90;;;;;;6310449;28;20267;-67
2022/11/24 03:03:40;;;;;;;4.63;4.20;;;4.00;99.90;;;;;;6310140;28;20371;-68
2022/11/24 03:06:45;;;;;;;4.90;4.60;;;4.00;99.90;;;;;;6310829;28;20269;-68
2022/11/24 03:09:51;;;;;;;5.03;4.50;;;3.90;99.90;;;;;;6310154;28;20299;-66
2022/11/24 03:12:57;;;;;;;4.70;4.40;;;3.90;99.90;;;;;;6310446;28;20298;-67
2022/11/24 03:16:02;;;;;;;5.10;4.70;;;3.90;99.90;;;;;;6310942;28;20276;-67
2022/11/24 03:19:07;;;;;;;4.83;4.43;;;3.90;99.90;;;;;;6310058;28;20290;-66
2022/11/24 03:22:13;;;;;;;5.73;5.27;;;4.00;99.90;;;;;;6309801;28;20269;-66
2022/11/24 03:25:18;;;;;;;5.57;5.07;;;4.00;99.90;;;;;;6310825;28;20285;-67
2022/11/24 03:28:24;;;;;;;8.03;5.47;;;4.00;99.90;;;;;;6309716;28;20573;-67
2022/11/24 03:31:29;;;;;;;6.20;5.60;;;4.00;99.90;;;;;;6310846;28;20263;-67
2022/11/24 03:34:34;;;;;;;5.47;5.07;;;4.00;99.90;;;;;;6310272;28;20303;-67
2022/11/24 03:37:40;;;;;;;6.17;5.40;;;4.00;99.90;;;;;;6310054;28;20293;-68
2022/11/24 03:40:45;;;;;;;6.90;5.10;;;4.00;99.90;;;;;;6325900;28;20314;-68
2022/11/24 03:43:51;;;;;;;5.57;5.17;;;4.00;99.90;;;;;;6334837;28;20291;-67
2022/11/24 03:46:56;;;;;;;6.07;5.50;;;4.00;99.90;;;;;;6335217;28;20287;-66
2022/11/24 03:50:01;;;;;;;6.57;5.80;;;4.00;99.90;;;;;;6334617;28;20303;-67
2022/11/24 03:53:06;;;;;;;5.47;5.07;;;4.00;99.90;;;;;;6334554;28;20299;-67
2022/11/24 03:56:14;;;;;;;5.63;5.23;;;3.90;99.90;;;;;;6334654;28;20278;-67
2022/11/24 03:59:20;;;;;;;7.43;5.67;;;4.00;99.90;;;;;;6334980;28;20301;-66
2022/11/24 04:02:25;;;;;;;5.33;4.90;;;4.00;99.90;;;;;;6315716;28;20298;-67
2022/11/24 04:05:32;;;;;;;5.90;5.50;;;4.00;99.90;;;;;;6320730;28;20279;-67
2022/11/24 04:08:36;;;;;;;6.07;5.57;;;4.00;99.90;;;;;;6283529;28;20298;-67
2022/11/24 04:15:06;;;;;;;5.70;5.10;;;4.00;99.90;;;;;;6339157;28;20278;-68
2022/11/24 04:18:13;;;;;;;5.53;5.07;;;4.00;99.90;;;;;;6338804;28;20296;-68
2022/11/24 04:21:18;;;;;;;5.43;4.83;;;4.00;99.90;;;;;;6289432;28;20271;-68
2022/11/24 04:24:22;;;;;;;5.33;5.00;;;4.00;99.90;;;;;;6289351;28;20310;-68
2022/11/24 04:27:27;;;;;;;5.27;4.97;;;4.00;99.90;;;;;;6289062;28;20298;-68
2022/11/24 04:30:34;;;;;;;5.13;4.80;;;4.00;99.90;;;;;;6289144;28;20276;-67
2022/11/24 04:33:39;;;;;;;4.73;4.43;;;4.00;99.90;;;;;;6289118;28;20292;-68
2022/11/24 04:36:44;;;;;;;5.57;4.60;;;4.10;99.90;;;;;;6301154;28;20274;-68
2022/11/24 04:39:49;;;;;;;4.87;4.47;;;4.10;99.90;;;;;;6313804;28;20302;-67
2022/11/24 04:42:54;;;;;;;5.10;4.80;;;4.10;99.90;;;;;;6313233;28;20303;-67
2022/11/24 04:46:02;;;;;;;5.40;4.90;;;4.20;99.90;;;;;;6313871;28;20292;-67
2022/11/24 04:49:10;;;;;;;5.20;4.70;;;4.20;99.90;;;;;;6313736;28;20537;-67
2022/11/24 04:52:15;;;;;;;5.07;4.67;;;4.20;99.90;;;;;;6313239;28;20269;-68
2022/11/24 04:55:20;;;;;;;6.00;4.97;;;4.20;99.90;;;;;;6313337;28;20271;-68
2022/11/24 04:58:24;;;;;;;5.37;4.90;;;4.20;99.90;;;;;;6313405;28;20293;-67
2022/11/24 05:01:31;;;;;;;8.37;4.93;;;4.20;99.90;;;;;;6313118;28;20452;-66
2022/11/24 05:04:35;;;;;;;5.90;5.40;;;4.20;99.90;;;;;;6312834;28;20297;-67
2022/11/24 05:07:41;;;;;;;5.13;4.80;;;4.20;99.90;;;;;;6312842;28;20294;-68
2022/11/24 05:10:45;;;;;;;4.63;4.33;;;4.20;99.90;;;;;;6306193;28;20271;-68
2022/11/24 05:13:50;;;;;;;5.00;4.47;;;4.20;99.90;;;;;;6262715;28;20300;-67
2022/11/24 05:16:56;;;;;;;5.20;4.90;;;4.20;99.90;;;;;;6263852;28;20274;-68
2022/11/24 05:20:01;;;;;;;5.03;4.73;;;4.20;99.90;;;;;;6263034;28;20270;-68
2022/11/24 05:23:08;;;;;;;5.77;5.00;;;4.20;99.90;;;;;;6262473;28;20298;-68
2022/11/24 05:26:13;;;;;;;5.07;4.77;;;4.10;99.90;;;;;;6263079;28;20325;-68
2022/11/24 05:29:18;;;;;;;7.43;4.67;;;4.20;99.90;;;;;;6262500;28;20302;-68
2022/11/24 05:32:25;;;;;;;4.67;4.27;;;4.20;99.90;;;;;;6262672;28;20293;-68
2022/11/24 05:35:29;;;;;;;6.03;4.70;;;4.20;99.90;;;;;;6263276;28;20270;-67
2022/11/24 05:38:35;;;;;;;6.00;4.23;;;4.20;99.90;;;;;;6262358;28;20296;-68
2022/11/24 05:41:41;;;;;;;4.03;3.80;;;4.20;99.90;;;;;;6262558;28;20301;-68
2022/11/24 05:44:46;;;;;;;4.67;4.40;;;4.20;99.90;;;;;;6262132;28;20297;-68
2022/11/24 05:47:52;;;;;;;4.80;4.27;;;4.20;99.90;;;;;;6262402;28;20313;-67
2022/11/24 05:50:58;;;;;;;5.07;4.57;;;4.10;99.90;;;;;;6262839;28;20268;-67
2022/11/24 05:54:02;;;;;;;5.00;4.53;;;4.20;99.90;;;;;;6262437;28;20296;-67
2022/11/24 05:57:07;;;;;;;4.70;4.20;;;4.20;99.90;;;;;;6262592;28;20279;-68
2022/11/24 06:00:16;;;;;;;4.93;4.53;;;4.20;99.90;;;;;;6262801;28;20284;-67
2022/11/24 06:03:23;;;;;;;5.07;4.77;;;4.20;99.90;;;;;;6261483;28;20295;-67
2022/11/24 06:06:28;;;;;;;4.50;4.30;;;4.10;99.90;;;;;;6262649;28;20288;-66
2022/11/24 06:09:32;;;;;;;4.00;3.80;;;4.20;99.90;;;;;;6262420;28;20297;-68
2022/11/24 06:12:37;;;;;;;4.57;4.23;;;4.20;99.90;;;;;;6285900;28;20294;-67
2022/11/24 06:15:42;;;;;;;4.30;4.10;;;4.20;99.90;;;;;;6286870;28;20299;-67
2022/11/24 06:18:48;;;;;;;5.20;4.63;;;4.20;99.90;;;;;;6285968;28;20298;-68
2022/11/24 06:21:52;;;;;;;4.63;4.20;;;4.20;99.90;;;;;;6286701;28;20274;-66
2022/11/24 06:24:57;;;;;;;5.20;4.80;;;4.20;99.90;;;;;;6285283;28;20272;-68
2022/11/24 06:28:04;;;;;;;4.63;4.30;;;4.10;99.90;;;;;;6285698;28;20300;-67
2022/11/24 06:31:11;;;;;;;5.13;4.70;;;4.20;99.90;;;;;;6285874;28;20268;-68
2022/11/24 06:34:17;;;;;;;4.53;4.23;;;4.20;99.90;;;;;;6284674;28;20296;-68
2022/11/24 06:37:21;;;;;;;7.90;4.87;;;4.20;99.90;;;;;;6285266;28;20326;-67
2022/11/24 06:40:26;;;;;;;6.27;4.20;;;4.20;99.90;;;;;;6299327;28;20295;-68
2022/11/24 06:43:31;;;;;;;4.97;4.53;;;4.20;99.90;;;;;;6310695;28;20293;-68
2022/11/24 06:46:36;;;;;;;5.30;4.50;;;4.20;99.90;;;;;;6311354;28;20440;-68
2022/11/24 06:49:42;;;;;;;4.60;4.23;;;4.20;99.90;;;;;;6310883;28;20304;-68
2022/11/24 06:52:47;;;;;;;4.57;4.27;;;4.20;99.90;;;;;;6310703;28;20580;-67
2022/11/24 06:55:52;;;;;;;5.57;5.13;;;4.30;99.90;;;;;;6310759;28;20278;-68
2022/11/24 06:58:57;;;;;;;4.77;4.47;;;4.30;99.90;;;;;;6310232;28;20305;-68
2022/11/24 07:02:01;;;;;;;4.90;4.50;;;4.30;99.90;;;;;;6310147;28;20267;-68
2022/11/24 07:05:09;;;;;;;5.20;4.83;;;4.30;99.90;;;;;;6310430;28;20275;-68
2022/11/24 07:08:14;;;;;;;5.50;5.00;;;4.30;99.90;;;;;;6310034;28;20342;-68
2022/11/24 07:11:23;;;;;;;5.00;4.60;;;4.30;99.90;;;;;;6310384;28;20268;-68
2022/11/24 07:14:28;;;;;;;5.83;4.20;;;4.30;99.90;;;;;;6309913;28;20290;-67
2022/11/24 07:17:36;;;;;;;5.27;4.87;;;4.30;99.90;;;;;;6292296;28;20299;-67
2022/11/24 07:20:42;;;;;;;4.63;4.30;;;4.30;99.90;;;;;;6310751;28;20263;-67
2022/11/24 07:23:49;;;;;;;4.73;4.33;;;4.30;99.90;;;;;;6309895;28;20502;-67
2022/11/24 07:26:53;;;;;;;4.53;4.23;;;4.30;99.90;;;;;;6310413;28;20476;-67
2022/11/24 07:29:58;;;;;;;4.80;4.30;;;4.30;99.90;;;;;;6309568;28;20272;-67
2022/11/24 07:33:03;;;;;;;5.10;4.70;;;4.30;99.90;;;;;;6309910;28;20607;-67
2022/11/24 07:36:10;;;;;;;5.03;4.63;;;4.30;99.90;;;;;;6310462;28;20277;-67
2022/11/24 07:39:14;;;;;;;6.60;4.60;;;4.30;99.90;;;;;;6309767;28;20493;-67
2022/11/24 07:42:19;;;;;;;5.23;4.77;;;4.30;99.90;;;;;;6309441;28;20541;-67
2022/11/24 07:45:23;;;;;;;5.17;4.77;;;4.30;99.90;;;;;;6310582;28;20443;-67
2022/11/24 07:48:28;;;;;;;4.80;4.40;;;4.30;99.90;;;;;;6314512;28;20478;-67
2022/11/24 07:51:35;;;;;;;4.90;4.50;;;4.40;99.90;;;;;;6315178;28;20267;-66
2022/11/24 07:54:40;;;;;;;5.17;4.77;;;4.40;99.90;;;;;;6314260;28;20301;-67
2022/11/24 07:57:45;;;;;;;5.40;4.90;;;4.40;99.90;;;;;;6314697;28;20302;-67
2022/11/24 08:00:49;;;;;;;6.07;4.67;;;4.40;99.90;;;;;;6297530;28;20277;-67
2022/11/24 08:03:54;;;;;;;4.93;4.63;;;4.40;99.90;;;;;;6314792;28;20612;-67
2022/11/24 08:07:00;;;;;;;4.97;4.63;;;4.40;99.90;;;;;;6314011;28;20289;-67
2022/11/24 08:10:06;;;;;;;4.70;4.40;;;4.40;99.90;;;;;;6314322;28;20346;-67
2022/11/24 08:13:11;;;;;;;5.00;4.60;;;4.40;99.90;;;;;;6313965;28;20296;-67
2022/11/24 08:16:18;;;;;;;5.37;4.87;;;4.40;99.90;;;;;;6314516;28;20268;-67
2022/11/24 08:19:23;;;;;;;4.03;3.73;;;4.40;99.90;;;;;;6314015;28;20306;-67
2022/11/24 08:22:29;;;;;;;5.17;4.77;;;4.40;99.90;;;;;;6313977;28;20303;-67
2022/11/24 08:25:33;;;;;;;4.60;4.20;;;4.50;99.90;;;;;;6313863;28;20273;-67
2022/11/24 08:28:38;;;;;;;4.60;4.20;;;4.50;99.90;;;;;;6313427;28;20312;-67
2022/11/24 08:31:43;;;;;;;7.53;4.43;;;4.50;99.90;;;;;;6313997;28;20265;-68
2022/11/24 08:34:48;;;;;;;7.27;4.60;;;4.60;99.90;;;;;;6313320;28;20296;-67
2022/11/24 08:37:54;;;;;;;5.10;4.13;;;4.60;99.90;;;;;;6313895;28;20296;-67
2022/11/24 08:41:03;;;;;;;5.37;4.03;;;4.60;99.90;;;;;;6313615;28;20620;-67
2022/11/24 08:44:09;;;;;;;11.33;4.57;;;4.70;99.90;;;;;;6313302;28;20296;-68
2022/11/24 08:47:14;;;;;;;17.77;4.50;;;4.60;99.90;;;;;;6313215;28;20268;-67
2022/11/24 08:50:18;;;;;;;5.00;4.50;;;4.70;99.90;;;;;;6313847;28;20268;-67
2022/11/24 08:53:25;;;;;;;10.57;5.07;;;4.80;99.90;;;;;;6313194;28;20604;-68
2022/11/24 08:56:32;;;;;;;16.07;5.03;;;4.70;99.90;;;;;;6313244;28;20273;-67
2022/11/24 08:59:37;;;;;;;9.57;4.50;;;4.80;99.90;;;;;;6312154;28;20387;-67
2022/11/24 09:02:42;;;;;;;18.87;5.20;;;4.80;99.90;;;;;;6313277;28;20293;-68
2022/11/24 09:05:46;;;;;;;6.00;4.50;;;4.80;99.90;;;;;;6313938;28;20268;-68
2022/11/24 09:08:58;;;;;;;6.83;3.93;;;4.80;99.90;;;;;;6312960;28;20303;-67
2022/11/24 09:12:03;;;;;;;6.50;3.87;;;4.80;99.90;;;;;;6312777;28;20280;-68
2022/11/24 09:15:15;;;;;;;5.93;4.33;;;4.80;99.90;;;;;;6313186;28;20265;-68
2022/11/24 09:18:19;;;;;;;6.17;4.27;;;4.70;99.90;;;;;;6312835;28;20481;-68
2022/11/24 09:21:24;;;;;;;4.53;4.13;;;4.80;99.90;;;;;;6313570;28;20266;-67
2022/11/24 09:24:30;;;;;;;3.93;3.73;;;4.80;99.90;;;;;;6312841;28;20451;-67
2022/11/24 09:27:36;;;;;;;4.40;4.00;;;4.90;99.90;;;;;;6312344;28;20312;-67
2022/11/24 09:30:40;;;;;;;4.30;4.00;;;4.90;99.90;;;;;;6313184;28;20274;-67
2022/11/24 09:33:46;;;;;;;4.30;3.80;;;4.90;99.90;;;;;;6312738;28;20292;-67
2022/11/24 09:36:50;;;;;;;3.57;3.37;;;4.90;99.90;;;;;;6312974;28;20265;-68
2022/11/24 09:39:56;;;;;;;4.03;3.50;;;4.80;99.90;;;;;;6320976;28;20597;-67
2022/11/24 09:43:06;;;;;;;4.17;3.70;;;4.90;99.90;;;;;;6337022;28;20292;-68
2022/11/24 09:46:17;;;;;;;3.60;3.50;;;4.90;99.90;;;;;;6337594;28;20267;-67
2022/11/24 09:49:30;;;;;;;3.70;3.50;;;4.90;99.90;;;;;;6336883;28;20299;-67
2022/11/24 09:52:41;;;;;;;5.73;4.13;;;5.00;99.90;;;;;;6337090;28;20312;-67
2022/11/24 09:55:49;;;;;;;3.33;3.20;;;5.00;99.90;;;;;;6337247;28;20265;-67
2022/11/24 09:58:57;;;;;;;3.60;3.30;;;5.00;99.90;;;;;;6336702;28;20355;-67
2022/11/24 10:02:01;;;;;;;3.17;3.03;;;5.00;99.90;;;;;;6336769;28;20269;-67
2022/11/24 10:05:07;;;;;;;3.27;3.07;;;5.00;99.90;;;;;;6319044;28;20401;-67
2022/11/24 10:08:45;;;;;;;2.53;2.43;;;5.00;99.90;;;;;;6336332;28;20292;-68
2022/11/24 10:12:00;;;;;;;2.73;2.73;;;5.10;99.90;;;;;;6293835;28;20270;-67
2022/11/24 10:15:24;;;;;;;3.47;3.23;;;5.00;99.90;;;;;;6285979;28;20335;-67
2022/11/24 10:18:59;;;;;;;3.03;2.83;;;5.00;99.90;;;;;;6286470;28;20481;-68
2022/11/24 10:22:20;;;;;;;3.03;2.83;;;5.00;99.90;;;;;;6286638;28;20278;-69
2022/11/24 10:25:39;;;;;;;2.83;2.73;;;4.90;99.90;;;;;;6287292;28;20272;-68
2022/11/24 10:28:51;;;;;;;2.77;2.67;;;5.00;99.90;;;;;;6286273;28;20301;-68
2022/11/24 10:31:56;;;;;;;2.73;2.60;;;5.00;99.90;;;;;;6286529;28;20264;-67
2022/11/24 10:35:15;;;;;;;2.43;2.40;;;5.10;99.90;;;;;;6285837;28;20282;-67
2022/11/24 10:38:31;;;;;;;2.30;2.20;;;5.10;99.90;;;;;;6285836;28;20295;-67
2022/11/24 10:41:43;;;;;;;3.00;2.90;;;5.00;99.90;;;;;;6308259;28;20302;-67
2022/11/24 10:45:00;;;;;;;2.87;2.77;;;5.00;99.90;;;;;;6310592;28;20298;-66
2022/11/24 10:48:08;;;;;;;2.57;2.50;;;4.90;99.90;;;;;;6310707;28;20497;-69
2022/11/24 10:51:40;;;;;;;2.90;2.80;;;4.90;99.90;;;;;;6311260;28;20294;-68
2022/11/24 10:54:56;;;;;;;2.60;2.50;;;5.00;99.90;;;;;;6310500;28;20468;-68
2022/11/24 10:58:16;;;;;;;2.90;2.40;;;5.00;99.90;;;;;;6310433;28;20444;-67
2022/11/24 11:01:28;;;;;;;2.70;2.50;;;5.00;99.90;;;;;;6310604;28;20268;-69
2022/11/24 11:04:35;;;;;;;2.57;2.47;;;5.00;99.90;;;;;;6310353;28;20298;-68
2022/11/24 11:07:39;;;;;;;2.07;2.03;;;4.90;99.90;;;;;;6310378;28;20291;-67
2022/11/24 11:10:45;;;;;;;2.33;2.20;;;4.90;99.90;;;;;;6321828;28;20293;-68
2022/11/24 11:13:54;;;;;;;2.60;2.50;;;5.00;99.90;;;;;;6335114;28;20287;-67
2022/11/24 11:17:34;;;;;;;2.40;2.30;;;5.00;99.90;;;;;;6334925;28;20269;-67
2022/11/24 11:20:38;;;;;;;2.60;2.50;;;4.90;99.90;;;;;;6336808;28;20273;-67
2022/11/24 11:23:45;;;;;;;2.43;2.37;;;5.00;99.90;;;;;;6340850;28;20299;-68
2022/11/24 11:27:00;;;;;;;3.90;2.50;;;4.90;99.90;;;;;;6341408;28;20268;-68
2022/11/24 11:30:24;;;;;;;2.67;2.47;;;5.00;99.90;;;;;;6340225;28;20300;-68
2022/11/24 11:33:59;;;;;;;2.57;2.30;;;5.10;99.90;;;;;;6340209;28;20455;-67
2022/11/24 11:37:13;;;;;;;2.30;2.20;;;5.00;99.90;;;;;;6340157;28;20270;-67
2022/11/24 11:40:23;;;;;;;2.10;2.10;;;5.00;99.90;;;;;;6328371;28;20295;-67
2022/11/24 11:43:31;;;;;;;2.03;1.93;;;4.90;99.90;;;;;;6314577;28;20299;-68
2022/11/24 11:46:36;;;;;;;3.70;2.20;;;4.90;99.90;;;;;;6315318;28;20269;-67
2022/11/24 11:49:42;;;;;;;3.60;2.23;;;5.00;99.90;;;;;;6314593;28;20474;-67
2022/11/24 11:53:00;;;;;;;2.17;2.10;;;5.00;99.90;;;;;;6314717;28;20292;-67
2022/11/24 11:56:15;;;;;;;2.13;1.97;;;5.00;99.90;;;;;;6314831;28;20272;-67
2022/11/24 11:59:50;;;;;;;1.80;1.80;;;4.90;99.90;;;;;;6314257;28;20298;-68
2022/11/24 12:03:47;;;;;;;1.90;1.90;;;4.90;99.90;;;;;;6314753;28;20295;-67
2022/11/24 12:07:11;;;;;;;1.90;1.80;;;4.90;99.90;;;;;;6308399;28;20272;-68
2022/11/24 12:10:25;;;;;;;1.70;1.70;;;4.80;99.90;;;;;;6314361;28;20284;-67
2022/11/24 12:14:01;;;;;;;1.97;1.87;;;4.80;99.90;;;;;;6314779;28;20483;-68
2022/11/24 12:17:11;;;;;;;1.80;1.80;;;4.80;99.90;;;;;;6312212;28;20268;-67
2022/11/24 12:20:31;;;;;;;2.77;2.00;;;4.90;99.90;;;;;;6314126;28;20476;-68
2022/11/24 12:23:53;;;;;;;2.07;1.97;;;4.90;99.90;;;;;;6313968;28;20312;-67
2022/11/24 12:27:01;;;;;;;2.63;2.10;;;4.80;99.90;;;;;;6314163;28;20275;-68
2022/11/24 12:30:11;;;;;;;2.07;1.97;;;4.90;99.90;;;;;;6313784;28;20293;-68
2022/11/24 12:33:53;;;;;;;1.80;1.70;;;4.80;99.90;;;;;;6313603;28;20297;-68
2022/11/24 12:37:21;;;;;;;1.80;1.70;;;4.80;99.90;;;;;;6313689;28;20273;-68
2022/11/24 12:40:38;;;;;;;1.80;1.80;;;4.80;99.90;;;;;;6313962;28;20305;-68
2022/11/24 12:43:52;;;;;;;2.20;2.10;;;4.80;99.90;;;;;;6313742;28;20301;-68
2022/11/24 12:47:03;;;;;;;1.90;1.90;;;4.80;99.90;;;;;;6313310;28;20482;-67
2022/11/24 12:50:12;;;;;;;1.83;1.83;;;4.80;99.90;;;;;;6313822;28;20288;-67
2022/11/24 12:53:20;;;;;;;1.90;1.80;;;4.80;99.90;;;;;;6313410;28;20490;-67
2022/11/24 12:56:30;;;;;;;2.07;2.07;;;4.70;99.90;;;;;;6314041;28;20268;-67
2022/11/24 12:59:44;;;;;;;1.80;1.70;;;4.70;99.90;;;;;;6313392;28;20291;-68
2022/11/24 13:03:09;;;;;;;2.00;1.83;;;4.70;99.90;;;;;;6312943;28;20287;-67
2022/11/24 13:06:18;;;;;;;2.23;1.60;;;4.70;99.90;;;;;;6313120;28;20275;-67
2022/11/24 13:09:22;;;;;;;1.83;1.83;;;4.60;99.90;;;;;;6313318;28;20613;-66
2022/11/24 13:12:29;;;;;;;1.80;1.70;;;4.60;99.90;;;;;;6287543;28;20297;-67
2022/11/24 13:16:15;;;;;;;1.63;1.63;;;4.60;99.90;;;;;;6288007;28;20269;-67
2022/11/24 13:19:40;;;;;;;1.57;1.57;;;4.60;99.90;;;;;;6287406;28;20296;-68
2022/11/24 13:22:51;;;;;;;1.50;1.50;;;4.60;99.90;;;;;;6287529;28;20300;-68
2022/11/24 13:26:15;;;;;;;1.83;1.60;;;4.60;99.90;;;;;;6288338;28;20264;-67
2022/11/24 13:29:35;;;;;;;1.60;1.60;;;4.60;99.90;;;;;;6287976;28;20617;-67
2022/11/24 13:33:00;;;;;;;1.40;1.40;;;4.60;99.90;;;;;;6287476;28;20322;-67
2022/11/24 13:36:34;;;;;;;1.30;1.30;;;4.60;99.90;;;;;;6288263;28;20268;-67
2022/11/24 13:39:49;;;;;;;1.67;1.67;;;4.50;99.90;;;;;;6287289;28;20613;-67
2022/11/24 13:43:19;;;;;;;1.80;1.70;;;4.30;99.90;;;;;;6287284;28;20305;-68
2022/11/24 13:47:00;;;;;;;1.60;1.60;;;4.30;99.90;;;;;;6287002;28;20277;-67
2022/11/24 13:50:23;;;;;;;1.57;1.57;;;4.30;99.90;;;;;;6301462;28;20274;-66
2022/11/24 13:53:31;;;;;;;2.23;1.60;;;4.20;99.90;;;;;;6269518;28;20296;-67
2022/11/24 13:56:36;;;;;;;1.50;1.50;;;4.20;99.90;;;;;;6287615;28;20264;-67
2022/11/24 13:59:42;;;;;;;3.60;1.80;;;4.20;99.90;;;;;;6286111;28;20293;-68
2022/11/24 14:02:48;;;;;;;1.40;1.40;;;4.20;99.90;;;;;;6286233;28;20293;-68
2022/11/24 14:05:53;;;;;;;4.43;1.57;;;4.20;99.90;;;;;;6287353;28;20284;-68
2022/11/24 14:09:00;;;;;;;1.40;1.40;;;4.10;99.90;;;;;;6286570;28;20291;-68
2022/11/24 14:12:13;;;;;;;1.90;1.80;;;4.20;99.90;;;;;;6308376;28;20286;-68
2022/11/24 14:15:24;;;;;;;1.43;1.43;;;4.10;99.90;;;;;;6311564;28;20271;-68
2022/11/24 14:18:30;;;;;;;1.50;1.50;;;4.10;99.90;;;;;;6311372;28;20296;-67
2022/11/24 14:21:39;;;;;;;1.50;1.50;;;4.20;99.90;;;;;;6293960;28;20271;-68
2022/11/24 14:24:44;;;;;;;1.57;1.57;;;4.20;99.90;;;;;;6311295;28;20328;-68
2022/11/24 14:27:50;;;;;;;1.83;1.83;;;4.20;99.90;;;;;;6311006;28;20484;-68
2022/11/24 14:31:07;;;;;;;1.73;1.73;;;4.30;99.90;;;;;;6311628;28;20568;-68
2022/11/24 14:34:20;;;;;;;2.10;1.80;;;4.20;99.90;;;;;;6311070;28;20631;-67
2022/11/24 14:37:25;;;;;;;1.90;1.90;;;4.30;99.90;;;;;;6311034;28;20304;-68
2022/11/24 14:40:41;;;;;;;2.30;2.00;;;4.20;99.90;;;;;;6311600;28;20297;-68
2022/11/24 14:43:46;;;;;;;1.83;1.83;;;4.20;99.90;;;;;;6310833;28;20300;-68
2022/11/24 14:46:51;;;;;;;1.77;1.70;;;4.30;99.90;;;;;;6311301;28;20582;-68
2022/11/24 14:50:06;;;;;;;1.73;1.63;;;4.20;99.90;;;;;;6310898;28;20299;-68
2022/11/24 14:53:15;;;;;;;1.93;1.93;;;4.20;99.90;;;;;;6310486;28;20524;-68
2022/11/24 14:56:25;;;;;;;1.70;1.70;;;4.20;99.90;;;;;;6310282;28;20288;-68
2022/11/24 14:59:33;;;;;;;1.83;1.83;;;4.10;99.90;;;;;;6310439;28;20483;-68
2022/11/24 15:02:42;;;;;;;2.10;2.03;;;4.20;99.90;;;;;;6310615;28;20292;-68
2022/11/24 15:05:59;;;;;;;2.43;2.00;;;4.20;99.90;;;;;;6310842;28;20268;-68
2022/11/24 15:09:04;;;;;;;1.90;1.90;;;4.20;99.90;;;;;;6310288;28;20292;-67
2022/11/24 15:12:27;;;;;;;1.80;1.80;;;4.20;99.90;;;;;;6310184;28;20321;-67
2022/11/24 15:15:35;;;;;;;1.90;1.80;;;4.20;99.90;;;;;;6310808;28;20267;-68
2022/11/24 15:18:42;;;;;;;1.80;1.70;;;4.10;99.90;;;;;;6310237;28;20301;-67
2022/11/24 15:21:48;;;;;;;1.83;1.83;;;4.10;99.90;;;;;;6310885;28;20539;-68
2022/11/24 15:24:54;;;;;;;1.80;1.80;;;4.20;99.90;;;;;;6309872;28;20300;-67
2022/11/24 15:27:59;;;;;;;2.07;1.90;;;4.10;99.90;;;;;;6292441;28;20292;-67
2022/11/24 15:31:06;;;;;;;2.10;2.00;;;4.10;99.90;;;;;;6310809;28;20266;-68
2022/11/24 15:34:14;;;;;;;1.80;1.80;;;4.10;99.90;;;;;;6310266;28;20294;-68
2022/11/24 15:37:20;;;;;;;2.10;2.00;;;4.10;99.90;;;;;;6310325;28;20291;-68
2022/11/24 15:40:25;;;;;;;2.63;2.10;;;4.20;99.90;;;;;;6292541;28;20300;-68
2022/11/24 15:43:31;;;;;;;1.90;1.90;;;4.20;99.90;;;;;;6310135;28;20303;-68
2022/11/24 15:46:38;;;;;;;1.80;1.80;;;4.20;99.90;;;;;;6310714;28;20271;-67
2022/11/24 15:49:43;;;;;;;2.00;1.90;;;4.20;99.90;;;;;;6310055;28;20292;-67
2022/11/24 15:52:49;;;;;;;1.90;1.80;;;4.20;99.90;;;;;;6309746;28;20308;-67
2022/11/24 15:55:55;;;;;;;2.60;2.40;;;4.20;99.90;;;;;;6310079;28;20267;-67
2022/11/24 15:59:00;;;;;;;1.80;1.80;;;4.20;99.90;;;;;;6309837;28;20304;-67
2022/11/24 16:02:04;;;;;;;1.70;1.70;;;4.20;99.90;;;;;;6309645;28;20275;-67
2022/11/24 16:05:11;;;;;;;2.07;2.07;;;4.20;99.90;;;;;;6310388;28;20264;-67
2022/11/24 16:08:17;;;;;;;2.00;1.90;;;4.20;99.90;;;;;;6312724;28;20609;-68
2022/11/24 16:11:22;;;;;;;1.90;1.80;;;4.20;99.90;;;;;;6298824;28;20269;-68
2022/11/24 16:14:27;;;;;;;1.93;1.93;;;4.30;99.90;;;;;;6289186;28;20308;-68
2022/11/24 16:17:31;;;;;;;2.43;2.33;;;4.20;99.90;;;;;;6289274;28;20296;-68
2022/11/24 16:20:36;;;;;;;2.50;2.00;;;4.20;99.90;;;;;;6290100;28;20271;-69
2022/11/24 16:23:42;;;;;;;2.00;2.00;;;4.20;99.90;;;;;;6289628;28;20302;-67
2022/11/24 16:26:47;;;;;;;2.27;2.17;;;4.30;99.90;;;;;;6289450;28;20272;-68
2022/11/24 16:29:52;;;;;;;2.27;2.10;;;4.30;99.90;;;;;;6289145;28;20294;-68
2022/11/24 16:32:57;;;;;;;2.00;2.00;;;4.20;99.90;;;;;;6288921;28;20301;-67
2022/11/24 16:36:01;;;;;;;2.30;2.00;;;4.20;99.90;;;;;;6289117;28;20264;-68
2022/11/24 16:39:07;;;;;;;1.90;1.80;;;4.20;99.90;;;;;;6290413;28;20613;-68
2022/11/24 16:42:12;;;;;;;1.60;1.60;;;4.20;99.90;;;;;;6313803;28;20584;-67